deformed-offering

Nearby METAR Reports

 

KSJC - San Jose, California, USA
Distance from station: NE 9mi, 14km
Updated: Mon, 06-Feb-2023 2:53am PST
Clear
Clear
 Wind from calm
Wind: Calm
Temperature: 45°F , 7°C
Dew Point: 39°F , 4°C
Humidity: 81%
Barometer: 30.38 inHg , 1028.8 hPa
Clouds: Clear
Visibility: 10 miles , 16 km
2023/02/06 10:53 KSJC 061053Z AUTO 00000KT 10SM CLR 07/04 A3038 RMK AO2 SLP285 T00670039
KPAO - Palo Alto, California, USA
Distance from station: NNW 14mi, 23km
Updated: Sun, 05-Feb-2023 8:47pm PST
NOT Current
Few Clouds
Few Clouds
 Wind from W
Wind: W 8 mph , 13 km/h
Temperature: 48°F , 9°C
Wind Chill: 44°F , 7°C
Dew Point: 43°F , 6°C
Humidity: 82%
Barometer: 30.33 inHg , 1027.1 hPa
Clouds: Few Clouds
Visibility: 10 miles , 16 km
Cloud details: Few Clouds 5000 ft
2023/02/06 04:47 KPAO 060447Z 28007KT 10SM FEW050 09/06 A3033 RMK LAST
 
KSQL - San Carlos Airpo, California, USA
Distance from station: NW 21mi, 34km
Updated: Mon, 06-Feb-2023 3:35am PST
Clear
Clear
 Wind from calm
Wind: Calm
Temperature: 43°F , 6°C
Dew Point: 41°F , 5°C
Humidity: 93%
Barometer: 30.39 inHg , 1029.1 hPa
Clouds: Clear
Visibility: 10 miles , 16 km
2023/02/06 11:35 KSQL 061135Z AUTO 00000KT 10SM CLR 06/05 A3039 RMK AO2
KWVI - Watsonville, California, USA
Distance from station: SSE 27mi, 44km
Updated: Mon, 06-Feb-2023 2:53am PST
Clear
Clear
 Wind from calm
Wind: Calm
Temperature: 37°F , 3°C
Dew Point: 37°F , 3°C
Humidity: 100%
Barometer: 30.36 inHg , 1028.1 hPa
Clouds: Clear
Visibility: 10 miles , 16 km
2023/02/06 10:53 KWVI 061053Z AUTO 00000KT 10SM CLR 03/03 A3036 RMK AO2 SLP281 T00280028
 
KHWD - Hayward, California, USA
Distance from station: N 28mi, 44km
Updated: Mon, 06-Feb-2023 2:54am PST
Clear
Clear
 Wind from calm
Wind: Calm
Temperature: 39°F , 4°C
Dew Point: 37°F , 3°C
Humidity: 93%
Barometer: 30.37 inHg , 1028.4 hPa
Clouds: Clear
Visibility: 10 miles , 16 km
2023/02/06 10:54 KHWD 061054Z AUTO 00000KT 10SM CLR 04/03 A3037 RMK AO2 SLP295 T00440033
KSFO - San Francisco, California, USA
Distance from station: NW 30mi, 49km
Updated: Mon, 06-Feb-2023 2:56am PST
Clear
Clear
 Wind from WNW
Wind: WNW 5 mph , 7 km/h
Temperature: 46°F , 8°C
Wind Chill: 44°F , 7°C
Dew Point: 41°F , 5°C
Humidity: 82%
Barometer: 30.38 inHg , 1028.8 hPa
Clouds: Clear
Visibility: 10 miles , 16 km
2023/02/06 10:56 KSFO 061056Z 30004KT 10SM CLR 08/05 A3038 RMK AO2 SLP286 T00780050
 
KHAF - Half Moon Bay, California, USA
Distance from station: WNW 31mi, 50km
Updated: Mon, 06-Feb-2023 3:35am PST
Few Clouds
Few Clouds
 Wind from NNE
Wind: NNE 8 mph , 13 km/h
Temperature: 43°F , 6°C
Wind Chill: 38°F , 3°C
Dew Point: 39°F , 4°C
Humidity: 87%
Barometer: 30.38 inHg , 1028.8 hPa
Clouds: Few Clouds
Visibility: 9 miles , 14 km
Cloud details: Few Clouds 300 ft
2023/02/06 11:35 KHAF 061135Z AUTO 02007KT 9SM FEW003 06/04 A3038 RMK AO2
KLVK - Livermore, California, USA
Distance from station: NNE 31mi, 51km
Updated: Mon, 06-Feb-2023 2:53am PST
Clear
Clear
 Wind from ENE
Wind: ENE 3 mph , 6 km/h
Temperature: 37°F , 3°C
Dew Point: 36°F , 2°C
Humidity: 93%
Barometer: 30.36 inHg , 1028.1 hPa
Clouds: Clear
Visibility: 10 miles , 16 km
2023/02/06 10:53 KLVK 061053Z AUTO 06003KT 10SM CLR 03/02 A3036 RMK AO2 SLP282 T00280022
 
KOAK - Oakland, California, USA
Distance from station: NNW 33mi, 53km
Updated: Mon, 06-Feb-2023 2:53am PST
Clear
Clear
 Wind from NNW
Wind: NNW 3 mph , 6 km/h
Temperature: 45°F , 7°C
Dew Point: 37°F , 3°C
Humidity: 76%
Barometer: 30.38 inHg , 1028.8 hPa
Clouds: Clear
Visibility: 10 miles , 16 km
2023/02/06 10:53 KOAK 061053Z 34003KT 10SM CLR 07/03 A3038 RMK AO2 SLP288 T00720033
KCVH - Hollister Muni, California, USA
Distance from station: SE 42mi, 68km
Updated: Mon, 06-Feb-2023 3:35am PST
Clear
Clear
 Wind from calm
Wind: Calm
Temperature: 41°F , 5°C
Dew Point: 39°F , 4°C
Humidity: 93%
Barometer: 30.37 inHg , 1028.4 hPa
Clouds: Clear
Visibility: 10 miles , 16 km
2023/02/06 11:35 KCVH 061135Z AUTO 00000KT 10SM CLR 05/04 A3037 RMK A01
 
KSNS - Salinas, California, USA
Distance from station: SSE 48mi, 77km
Updated: Mon, 06-Feb-2023 2:53am PST
Clear
Clear
 Wind from N
Wind: N 5 mph , 7 km/h
Temperature: 43°F , 6°C
Wind Chill: 40°F , 4°C
Dew Point: 39°F , 4°C
Humidity: 87%
Barometer: 30.36 inHg , 1028.1 hPa
Clouds: Clear
Visibility: 10 miles , 16 km
2023/02/06 10:53 KSNS 061053Z AUTO 35004KT 10SM CLR 06/04 A3036 RMK AO2 SLP292 T00560039
KMRY - Monterey, California, USA
Distance from station: SSE 49mi, 78km
Updated: Mon, 06-Feb-2023 2:54am PST
Clear
Clear
 Wind from ESE
Wind: ESE 7 mph , 11 km/h
Temperature: 41°F , 5°C
Wind Chill: 36°F , 2°C
Dew Point: 39°F , 4°C
Humidity: 93%
Barometer: 30.36 inHg , 1028.1 hPa
Clouds: Clear
Visibility: 10 miles , 16 km
2023/02/06 10:54 KMRY 061054Z AUTO 12006KT 10SM CLR 05/04 A3036 RMK AO2 SLP295 T00500039
 
KCCR - Concord, California, USA
Distance from station: N 50mi, 81km
Updated: Mon, 06-Feb-2023 2:53am PST
Clear
Clear
 Wind from ESE
Wind: ESE 5 mph , 7 km/h
Temperature: 39°F , 4°C
Wind Chill: 35°F , 2°C
Dew Point: 37°F , 3°C
Humidity: 93%
Barometer: 30.38 inHg , 1028.8 hPa
Clouds: Clear
Visibility: 10 miles , 16 km
2023/02/06 10:53 KCCR 061053Z AUTO 12004KT 10SM CLR 04/03 A3038 RMK AO2 SLP272 T00390028
deformed-offering